Airfield :
LOGIN :

Register | Disclaimer

   EN    FR    IT 

 










Legend :    VFR   Marginal VFR   IFR   Intensive IFR   Very Intensive IFR
Visi :
Ceiling :
>= 8 km
>= 3000ft
5 to 8 km
1000 to 3000 ft
1500m to 5 km
500 to 1000 ft
800 to 1500m
200 to 500 ft
< 800m
< 200 ft
Symbols :   Thunderstorms  Fog  Heavy snow  Heavy precipitations  Wind > 20 kt
SIGMETs :     Misc.  Thunderstorms  Icing  Turbulence  Mountain Waves  Volcanic Ashes







- Airport Elevation : 909 ft
- IATA code : KSF


EDVK - Kassel Calden

CURRENT METAR :
  • 191220Z 29005KT 250V330 9999 FEW015 SCT025 BKN035 19/16 Q1024

EXPIRED METARs :
  • 191150Z 29007KT 250V330 9999 -RA SCT023 BKN031 OVC038 19/15 Q1024
  • 191120Z 29007KT 230V330 9999 FEW021 BKN032 OVC053 20/15 Q1024
  • 191050Z 26007KT 230V290 9999 SCT025 OVC043 19/16 Q1024 REDZ
  • 191020Z 30011KT 9999 4800E -DZ FEW015 BKN026 OVC040 17/17 Q1024
  • 190950Z 29010KT 250V310 9999 BKN025 OVC032 19/14 Q1024

TAF TAF EDVK
Valid from the 19 at 12:00 until the 19 at 21:00 UTC


191100Z 1912/1921 29007KT 9999 FEW025 BKN040
No reported NOTAMs for that airfield.



MET'MAP, your aeronautical weather chart ! - Copyright ORBIFLY December 2007 - Disclaimer

ORBIFLY MET'MAP TEAM :

Programming & Development : Alexandra Zaïnal
Concept & Development : Baudouin d'Aumeries
Co-Development & Prog : Marc-Olivier Méhu
Technical & hardware support : Manuel Goepfert

Contact : metmap@orbifly.com




SOURCES & CREDITS :

   NOAA